sensor_id;sensor_type;location;lat;lon;timestamp;P1;durP1;ratioP1;P2;durP2;ratioP2
67140;SDS011;54058;52.010;5.546;2023-12-14T00:01:13;15.00;;;9.15;;
67140;SDS011;54058;52.010;5.546;2023-12-14T00:03:39;18.88;;;9.98;;
67140;SDS011;54058;52.010;5.546;2023-12-14T00:06:11;16.40;;;9.82;;
67140;SDS011;54058;52.010;5.546;2023-12-14T00:08:37;18.48;;;9.90;;
67140;SDS011;54058;52.010;5.546;2023-12-14T00:11:06;16.90;;;10.00;;
67140;SDS011;54058;52.010;5.546;2023-12-14T00:13:33;14.40;;;8.60;;
67140;SDS011;54058;52.010;5.546;2023-12-14T00:15:59;17.15;;;9.40;;
67140;SDS011;54058;52.010;5.546;2023-12-14T00:18:25;15.80;;;9.43;;
67140;SDS011;54058;52.010;5.546;2023-12-14T00:20:51;16.67;;;9.20;;
67140;SDS011;54058;52.010;5.546;2023-12-14T00:23:17;18.97;;;9.77;;
67140;SDS011;54058;52.010;5.546;2023-12-14T00:25:43;18.85;;;9.63;;
67140;SDS011;54058;52.010;5.546;2023-12-14T00:28:09;16.38;;;9.25;;
67140;SDS011;54058;52.010;5.546;2023-12-14T00:30:34;19.27;;;9.95;;
67140;SDS011;54058;52.010;5.546;2023-12-14T00:33:00;18.58;;;10.05;;
67140;SDS011;54058;52.010;5.546;2023-12-14T00:35:25;17.85;;;9.65;;
67140;SDS011;54058;52.010;5.546;2023-12-14T00:37:51;17.58;;;10.57;;
67140;SDS011;54058;52.010;5.546;2023-12-14T00:40:17;16.42;;;9.23;;
67140;SDS011;54058;52.010;5.546;2023-12-14T00:42:42;17.17;;;9.30;;
67140;SDS011;54058;52.010;5.546;2023-12-14T00:45:08;16.75;;;9.27;;
67140;SDS011;54058;52.010;5.546;2023-12-14T00:47:34;17.30;;;9.38;;
67140;SDS011;54058;52.010;5.546;2023-12-14T00:49:59;15.35;;;8.82;;
67140;SDS011;54058;52.010;5.546;2023-12-14T00:52:25;16.60;;;9.52;;
67140;SDS011;54058;52.010;5.546;2023-12-14T00:54:51;15.88;;;8.32;;
67140;SDS011;54058;52.010;5.546;2023-12-14T00:57:16;17.30;;;9.73;;
67140;SDS011;54058;52.010;5.546;2023-12-14T00:59:42;15.90;;;9.55;;
67140;SDS011;54058;52.010;5.546;2023-12-14T01:02:08;18.42;;;10.10;;
67140;SDS011;54058;52.010;5.546;2023-12-14T01:04:33;20.70;;;9.35;;
67140;SDS011;54058;52.010;5.546;2023-12-14T01:06:59;17.63;;;10.10;;
67140;SDS011;54058;52.010;5.546;2023-12-14T01:09:25;16.13;;;9.88;;
67140;SDS011;54058;52.010;5.546;2023-12-14T01:11:50;18.05;;;10.10;;
67140;SDS011;54058;52.010;5.546;2023-12-14T01:14:16;15.38;;;9.90;;
67140;SDS011;54058;52.010;5.546;2023-12-14T01:16:42;13.63;;;8.93;;
67140;SDS011;54058;52.010;5.546;2023-12-14T01:19:07;19.17;;;10.77;;
67140;SDS011;54058;52.010;5.546;2023-12-14T01:21:33;17.95;;;9.75;;
67140;SDS011;54058;52.010;5.546;2023-12-14T01:23:59;13.52;;;9.00;;
67140;SDS011;54058;52.010;5.546;2023-12-14T01:26:26;15.10;;;10.00;;
67140;SDS011;54058;52.010;5.546;2023-12-14T01:28:52;14.80;;;9.07;;
67140;SDS011;54058;52.010;5.546;2023-12-14T01:31:17;14.85;;;9.10;;
67140;SDS011;54058;52.010;5.546;2023-12-14T01:33:44;15.57;;;10.50;;
67140;SDS011;54058;52.010;5.546;2023-12-14T01:36:11;15.25;;;9.93;;
67140;SDS011;54058;52.010;5.546;2023-12-14T01:38:36;15.45;;;9.45;;
67140;SDS011;54058;52.010;5.546;2023-12-14T01:41:02;14.52;;;8.60;;
67140;SDS011;54058;52.010;5.546;2023-12-14T01:43:28;15.52;;;8.85;;
67140;SDS011;54058;52.010;5.546;2023-12-14T01:45:53;13.23;;;8.80;;
67140;SDS011;54058;52.010;5.546;2023-12-14T01:48:19;13.70;;;9.02;;
67140;SDS011;54058;52.010;5.546;2023-12-14T01:50:45;15.05;;;8.77;;
67140;SDS011;54058;52.010;5.546;2023-12-14T01:53:10;10.85;;;7.85;;
67140;SDS011;54058;52.010;5.546;2023-12-14T01:55:36;13.45;;;8.10;;
67140;SDS011;54058;52.010;5.546;2023-12-14T01:58:02;10.88;;;8.18;;
67140;SDS011;54058;52.010;5.546;2023-12-14T02:00:37;13.68;;;8.13;;
67140;SDS011;54058;52.010;5.546;2023-12-14T02:03:07;12.10;;;8.40;;
67140;SDS011;54058;52.010;5.546;2023-12-14T02:05:33;14.63;;;8.13;;
67140;SDS011;54058;52.010;5.546;2023-12-14T02:07:58;13.60;;;8.95;;
67140;SDS011;54058;52.010;5.546;2023-12-14T02:10:24;12.32;;;8.70;;
67140;SDS011;54058;52.010;5.546;2023-12-14T02:12:50;12.23;;;8.15;;
67140;SDS011;54058;52.010;5.546;2023-12-14T02:15:15;12.25;;;8.60;;
67140;SDS011;54058;52.010;5.546;2023-12-14T02:17:41;15.00;;;8.07;;
67140;SDS011;54058;52.010;5.546;2023-12-14T02:20:06;11.23;;;8.20;;
67140;SDS011;54058;52.010;5.546;2023-12-14T02:22:35;10.68;;;7.90;;
67140;SDS011;54058;52.010;5.546;2023-12-14T02:25:14;13.07;;;8.57;;
67140;SDS011;54058;52.010;5.546;2023-12-14T02:27:39;14.98;;;8.98;;
67140;SDS011;54058;52.010;5.546;2023-12-14T02:30:05;13.15;;;8.98;;
67140;SDS011;54058;52.010;5.546;2023-12-14T02:32:31;13.05;;;8.48;;
67140;SDS011;54058;52.010;5.546;2023-12-14T02:34:57;15.15;;;10.02;;
67140;SDS011;54058;52.010;5.546;2023-12-14T02:37:22;12.82;;;8.43;;
67140;SDS011;54058;52.010;5.546;2023-12-14T02:39:48;17.27;;;9.98;;
67140;SDS011;54058;52.010;5.546;2023-12-14T02:42:14;11.70;;;8.15;;
67140;SDS011;54058;52.010;5.546;2023-12-14T02:44:39;14.38;;;8.13;;
67140;SDS011;54058;52.010;5.546;2023-12-14T02:47:05;14.57;;;9.05;;
67140;SDS011;54058;52.010;5.546;2023-12-14T02:49:30;13.65;;;8.75;;
67140;SDS011;54058;52.010;5.546;2023-12-14T02:51:57;14.35;;;8.82;;
67140;SDS011;54058;52.010;5.546;2023-12-14T02:54:22;15.07;;;8.88;;
67140;SDS011;54058;52.010;5.546;2023-12-14T02:56:48;13.80;;;8.95;;
67140;SDS011;54058;52.010;5.546;2023-12-14T02:59:13;14.65;;;9.32;;
67140;SDS011;54058;52.010;5.546;2023-12-14T03:01:39;14.13;;;9.05;;
67140;SDS011;54058;52.010;5.546;2023-12-14T03:04:05;18.73;;;9.18;;
67140;SDS011;54058;52.010;5.546;2023-12-14T03:06:32;17.30;;;9.30;;
67140;SDS011;54058;52.010;5.546;2023-12-14T03:08:57;13.35;;;8.82;;
67140;SDS011;54058;52.010;5.546;2023-12-14T03:11:23;13.63;;;9.52;;
67140;SDS011;54058;52.010;5.546;2023-12-14T03:13:49;15.60;;;9.15;;
67140;SDS011;54058;52.010;5.546;2023-12-14T03:16:15;20.63;;;10.00;;
67140;SDS011;54058;52.010;5.546;2023-12-14T03:18:42;13.48;;;9.85;;
67140;SDS011;54058;52.010;5.546;2023-12-14T03:21:08;12.65;;;8.60;;
67140;SDS011;54058;52.010;5.546;2023-12-14T03:23:34;13.73;;;9.30;;
67140;SDS011;54058;52.010;5.546;2023-12-14T03:26:00;14.98;;;8.95;;
67140;SDS011;54058;52.010;5.546;2023-12-14T03:28:26;12.85;;;8.70;;
67140;SDS011;54058;52.010;5.546;2023-12-14T03:30:52;14.02;;;8.88;;
67140;SDS011;54058;52.010;5.546;2023-12-14T03:33:18;16.65;;;9.18;;
67140;SDS011;54058;52.010;5.546;2023-12-14T03:35:44;12.88;;;8.52;;
67140;SDS011;54058;52.010;5.546;2023-12-14T03:38:11;12.75;;;8.85;;
67140;SDS011;54058;52.010;5.546;2023-12-14T03:40:39;11.55;;;8.70;;
67140;SDS011;54058;52.010;5.546;2023-12-14T03:43:05;11.90;;;8.45;;
67140;SDS011;54058;52.010;5.546;2023-12-14T03:45:30;14.05;;;8.63;;
67140;SDS011;54058;52.010;5.546;2023-12-14T03:47:56;13.48;;;8.30;;
67140;SDS011;54058;52.010;5.546;2023-12-14T03:50:22;15.50;;;8.98;;
67140;SDS011;54058;52.010;5.546;2023-12-14T03:52:48;11.65;;;7.93;;
67140;SDS011;54058;52.010;5.546;2023-12-14T03:55:14;10.43;;;8.02;;
67140;SDS011;54058;52.010;5.546;2023-12-14T03:57:40;10.75;;;8.02;;
67140;SDS011;54058;52.010;5.546;2023-12-14T04:00:07;13.45;;;8.40;;
67140;SDS011;54058;52.010;5.546;2023-12-14T04:02:35;12.20;;;8.20;;
67140;SDS011;54058;52.010;5.546;2023-12-14T04:05:01;15.07;;;7.97;;
67140;SDS011;54058;52.010;5.546;2023-12-14T04:07:26;12.02;;;8.40;;
67140;SDS011;54058;52.010;5.546;2023-12-14T04:09:52;10.88;;;7.82;;
67140;SDS011;54058;52.010;5.546;2023-12-14T04:12:18;15.13;;;7.43;;
67140;SDS011;54058;52.010;5.546;2023-12-14T04:14:43;14.82;;;8.50;;
67140;SDS011;54058;52.010;5.546;2023-12-14T04:17:10;11.02;;;8.02;;
67140;SDS011;54058;52.010;5.546;2023-12-14T04:19:38;12.45;;;8.52;;
67140;SDS011;54058;52.010;5.546;2023-12-14T04:22:04;11.90;;;7.50;;
67140;SDS011;54058;52.010;5.546;2023-12-14T04:24:29;10.82;;;8.10;;
67140;SDS011;54058;52.010;5.546;2023-12-14T04:26:55;10.40;;;7.47;;
67140;SDS011;54058;52.010;5.546;2023-12-14T04:29:21;14.48;;;8.65;;
67140;SDS011;54058;52.010;5.546;2023-12-14T04:31:47;12.68;;;8.55;;
67140;SDS011;54058;52.010;5.546;2023-12-14T04:34:13;13.93;;;8.15;;
67140;SDS011;54058;52.010;5.546;2023-12-14T04:39:13;12.48;;;7.82;;
67140;SDS011;54058;52.010;5.546;2023-12-14T04:41:38;11.38;;;7.93;;
67140;SDS011;54058;52.010;5.546;2023-12-14T04:44:04;10.15;;;7.35;;
67140;SDS011;54058;52.010;5.546;2023-12-14T04:46:30;20.48;;;7.78;;
67140;SDS011;54058;52.010;5.546;2023-12-14T04:48:55;12.35;;;7.82;;
67140;SDS011;54058;52.010;5.546;2023-12-14T04:51:21;11.23;;;7.78;;
67140;SDS011;54058;52.010;5.546;2023-12-14T04:53:47;12.93;;;8.00;;
67140;SDS011;54058;52.010;5.546;2023-12-14T04:56:12;12.13;;;7.40;;
67140;SDS011;54058;52.010;5.546;2023-12-14T04:58:38;11.93;;;7.53;;
67140;SDS011;54058;52.010;5.546;2023-12-14T05:01:05;14.45;;;7.93;;
67140;SDS011;54058;52.010;5.546;2023-12-14T05:03:31;10.80;;;7.63;;
67140;SDS011;54058;52.010;5.546;2023-12-14T05:05:58;12.13;;;7.45;;
67140;SDS011;54058;52.010;5.546;2023-12-14T05:08:23;14.05;;;8.45;;
67140;SDS011;54058;52.010;5.546;2023-12-14T05:10:49;15.38;;;8.25;;
67140;SDS011;54058;52.010;5.546;2023-12-14T05:13:15;14.40;;;7.97;;
67140;SDS011;54058;52.010;5.546;2023-12-14T05:15:40;14.35;;;7.90;;
67140;SDS011;54058;52.010;5.546;2023-12-14T05:18:06;13.57;;;8.13;;
67140;SDS011;54058;52.010;5.546;2023-12-14T05:20:33;10.98;;;7.10;;
67140;SDS011;54058;52.010;5.546;2023-12-14T05:22:59;11.57;;;7.65;;
67140;SDS011;54058;52.010;5.546;2023-12-14T05:25:24;12.43;;;7.90;;
67140;SDS011;54058;52.010;5.546;2023-12-14T05:27:50;13.65;;;7.78;;
67140;SDS011;54058;52.010;5.546;2023-12-14T05:30:16;11.55;;;7.07;;
67140;SDS011;54058;52.010;5.546;2023-12-14T05:32:42;10.07;;;7.22;;
67140;SDS011;54058;52.010;5.546;2023-12-14T05:35:08;11.02;;;7.45;;
67140;SDS011;54058;52.010;5.546;2023-12-14T05:37:34;12.20;;;6.75;;
67140;SDS011;54058;52.010;5.546;2023-12-14T05:40:01;10.80;;;6.43;;
67140;SDS011;54058;52.010;5.546;2023-12-14T05:42:27;9.90;;;7.03;;
67140;SDS011;54058;52.010;5.546;2023-12-14T05:44:53;12.18;;;6.80;;
67140;SDS011;54058;52.010;5.546;2023-12-14T05:47:18;12.32;;;7.38;;
67140;SDS011;54058;52.010;5.546;2023-12-14T05:49:44;9.43;;;7.07;;
67140;SDS011;54058;52.010;5.546;2023-12-14T05:52:10;12.68;;;6.68;;
67140;SDS011;54058;52.010;5.546;2023-12-14T05:54:36;10.27;;;5.93;;
67140;SDS011;54058;52.010;5.546;2023-12-14T05:57:02;16.10;;;6.03;;
67140;SDS011;54058;52.010;5.546;2023-12-14T05:59:28;9.68;;;6.40;;
67140;SDS011;54058;52.010;5.546;2023-12-14T06:01:57;11.85;;;6.95;;
67140;SDS011;54058;52.010;5.546;2023-12-14T06:04:23;10.80;;;6.75;;
67140;SDS011;54058;52.010;5.546;2023-12-14T06:06:49;13.57;;;7.43;;
67140;SDS011;54058;52.010;5.546;2023-12-14T06:09:15;10.30;;;6.68;;
67140;SDS011;54058;52.010;5.546;2023-12-14T06:11:42;10.38;;;6.70;;
67140;SDS011;54058;52.010;5.546;2023-12-14T06:14:08;9.73;;;6.43;;
67140;SDS011;54058;52.010;5.546;2023-12-14T06:16:34;14.38;;;7.03;;
67140;SDS011;54058;52.010;5.546;2023-12-14T06:18:59;10.13;;;6.60;;
67140;SDS011;54058;52.010;5.546;2023-12-14T06:21:25;8.93;;;5.88;;
67140;SDS011;54058;52.010;5.546;2023-12-14T06:23:53;11.93;;;6.85;;
67140;SDS011;54058;52.010;5.546;2023-12-14T06:26:19;11.88;;;6.90;;
67140;SDS011;54058;52.010;5.546;2023-12-14T06:28:44;9.20;;;6.80;;
67140;SDS011;54058;52.010;5.546;2023-12-14T06:31:14;11.82;;;6.45;;
67140;SDS011;54058;52.010;5.546;2023-12-14T06:33:40;12.15;;;6.60;;
67140;SDS011;54058;52.010;5.546;2023-12-14T06:36:07;11.30;;;6.75;;
67140;SDS011;54058;52.010;5.546;2023-12-14T06:40:59;10.60;;;6.82;;
67140;SDS011;54058;52.010;5.546;2023-12-14T06:43:27;10.13;;;6.55;;
67140;SDS011;54058;52.010;5.546;2023-12-14T06:45:53;9.02;;;5.32;;
67140;SDS011;54058;52.010;5.546;2023-12-14T06:48:19;12.52;;;6.70;;
67140;SDS011;54058;52.010;5.546;2023-12-14T06:50:45;10.30;;;6.30;;
67140;SDS011;54058;52.010;5.546;2023-12-14T06:53:11;9.18;;;5.93;;
67140;SDS011;54058;52.010;5.546;2023-12-14T06:55:36;10.00;;;5.82;;
67140;SDS011;54058;52.010;5.546;2023-12-14T06:58:02;11.55;;;6.50;;
67140;SDS011;54058;52.010;5.546;2023-12-14T07:00:28;10.23;;;6.43;;
67140;SDS011;54058;52.010;5.546;2023-12-14T07:02:54;13.32;;;6.65;;
67140;SDS011;54058;52.010;5.546;2023-12-14T07:05:20;11.02;;;6.65;;
67140;SDS011;54058;52.010;5.546;2023-12-14T07:07:46;12.32;;;6.15;;
67140;SDS011;54058;52.010;5.546;2023-12-14T07:10:11;10.75;;;6.05;;
67140;SDS011;54058;52.010;5.546;2023-12-14T07:12:37;11.93;;;6.32;;
67140;SDS011;54058;52.010;5.546;2023-12-14T07:15:02;10.38;;;5.85;;
67140;SDS011;54058;52.010;5.546;2023-12-14T07:17:28;8.93;;;6.10;;
67140;SDS011;54058;52.010;5.546;2023-12-14T07:19:54;9.50;;;6.00;;
67140;SDS011;54058;52.010;5.546;2023-12-14T07:22:20;8.15;;;5.55;;
67140;SDS011;54058;52.010;5.546;2023-12-14T07:24:45;7.60;;;5.53;;
67140;SDS011;54058;52.010;5.546;2023-12-14T07:27:11;8.25;;;5.65;;
67140;SDS011;54058;52.010;5.546;2023-12-14T07:29:36;8.48;;;5.68;;
67140;SDS011;54058;52.010;5.546;2023-12-14T07:32:02;10.63;;;5.82;;
67140;SDS011;54058;52.010;5.546;2023-12-14T07:34:28;7.93;;;5.57;;
67140;SDS011;54058;52.010;5.546;2023-12-14T07:36:54;8.27;;;5.30;;
67140;SDS011;54058;52.010;5.546;2023-12-14T07:39:19;8.38;;;5.60;;
67140;SDS011;54058;52.010;5.546;2023-12-14T07:41:45;8.38;;;5.55;;
67140;SDS011;54058;52.010;5.546;2023-12-14T07:44:11;8.38;;;5.90;;
67140;SDS011;54058;52.010;5.546;2023-12-14T07:46:37;8.73;;;5.53;;
67140;SDS011;54058;52.010;5.546;2023-12-14T07:49:06;10.93;;;6.05;;
67140;SDS011;54058;52.010;5.546;2023-12-14T07:51:32;9.32;;;6.32;;
67140;SDS011;54058;52.010;5.546;2023-12-14T07:53:57;7.47;;;5.38;;
67140;SDS011;54058;52.010;5.546;2023-12-14T07:56:23;10.38;;;5.65;;
67140;SDS011;54058;52.010;5.546;2023-12-14T07:58:52;8.75;;;6.07;;
67140;SDS011;54058;52.010;5.546;2023-12-14T08:01:18;11.73;;;5.75;;
67140;SDS011;54058;52.010;5.546;2023-12-14T08:03:44;8.32;;;5.50;;
67140;SDS011;54058;52.010;5.546;2023-12-14T08:06:09;9.18;;;6.03;;
67140;SDS011;54058;52.010;5.546;2023-12-14T08:08:35;9.35;;;6.40;;
67140;SDS011;54058;52.010;5.546;2023-12-14T08:13:28;8.68;;;5.30;;
67140;SDS011;54058;52.010;5.546;2023-12-14T08:15:55;9.15;;;5.97;;
67140;SDS011;54058;52.010;5.546;2023-12-14T08:18:20;9.13;;;6.40;;
67140;SDS011;54058;52.010;5.546;2023-12-14T08:20:46;8.40;;;5.88;;
67140;SDS011;54058;52.010;5.546;2023-12-14T08:23:11;10.63;;;6.65;;
67140;SDS011;54058;52.010;5.546;2023-12-14T08:25:37;11.45;;;6.43;;
67140;SDS011;54058;52.010;5.546;2023-12-14T08:28:03;12.23;;;7.10;;
67140;SDS011;54058;52.010;5.546;2023-12-14T08:30:28;12.13;;;6.85;;
67140;SDS011;54058;52.010;5.546;2023-12-14T08:32:54;8.00;;;5.82;;
67140;SDS011;54058;52.010;5.546;2023-12-14T08:35:20;8.60;;;6.03;;
67140;SDS011;54058;52.010;5.546;2023-12-14T08:37:45;12.18;;;6.00;;
67140;SDS011;54058;52.010;5.546;2023-12-14T08:40:11;11.73;;;7.00;;
67140;SDS011;54058;52.010;5.546;2023-12-14T08:42:37;11.68;;;6.30;;
67140;SDS011;54058;52.010;5.546;2023-12-14T08:45:02;17.63;;;6.57;;
67140;SDS011;54058;52.010;5.546;2023-12-14T08:47:28;14.02;;;7.13;;
67140;SDS011;54058;52.010;5.546;2023-12-14T08:49:54;19.15;;;8.23;;
67140;SDS011;54058;52.010;5.546;2023-12-14T08:52:20;10.93;;;6.63;;
67140;SDS011;54058;52.010;5.546;2023-12-14T08:54:45;8.18;;;5.50;;
67140;SDS011;54058;52.010;5.546;2023-12-14T08:57:11;8.95;;;6.65;;
67140;SDS011;54058;52.010;5.546;2023-12-14T08:59:37;11.40;;;7.40;;
67140;SDS011;54058;52.010;5.546;2023-12-14T09:02:02;16.55;;;8.02;;
67140;SDS011;54058;52.010;5.546;2023-12-14T09:04:29;15.23;;;7.17;;
67140;SDS011;54058;52.010;5.546;2023-12-14T09:06:54;20.42;;;10.15;;
67140;SDS011;54058;52.010;5.546;2023-12-14T09:09:20;10.25;;;6.55;;
67140;SDS011;54058;52.010;5.546;2023-12-14T09:11:46;11.07;;;6.45;;
67140;SDS011;54058;52.010;5.546;2023-12-14T09:14:11;10.35;;;6.15;;
67140;SDS011;54058;52.010;5.546;2023-12-14T09:16:37;9.60;;;6.07;;
67140;SDS011;54058;52.010;5.546;2023-12-14T09:19:02;9.02;;;6.05;;
67140;SDS011;54058;52.010;5.546;2023-12-14T09:21:28;8.38;;;5.93;;
67140;SDS011;54058;52.010;5.546;2023-12-14T09:23:54;8.27;;;5.82;;
67140;SDS011;54058;52.010;5.546;2023-12-14T09:26:19;8.27;;;5.88;;
67140;SDS011;54058;52.010;5.546;2023-12-14T09:28:45;9.20;;;6.15;;
67140;SDS011;54058;52.010;5.546;2023-12-14T09:31:11;10.07;;;7.00;;
67140;SDS011;54058;52.010;5.546;2023-12-14T09:33:36;10.15;;;5.93;;
67140;SDS011;54058;52.010;5.546;2023-12-14T09:36:02;8.75;;;5.80;;
67140;SDS011;54058;52.010;5.546;2023-12-14T09:38:28;13.00;;;5.80;;
67140;SDS011;54058;52.010;5.546;2023-12-14T09:40:53;10.55;;;5.78;;
67140;SDS011;54058;52.010;5.546;2023-12-14T09:43:19;9.30;;;6.90;;
67140;SDS011;54058;52.010;5.546;2023-12-14T09:45:46;9.07;;;6.38;;
67140;SDS011;54058;52.010;5.546;2023-12-14T09:48:13;9.38;;;6.22;;
67140;SDS011;54058;52.010;5.546;2023-12-14T09:50:41;12.18;;;6.55;;
67140;SDS011;54058;52.010;5.546;2023-12-14T09:53:07;13.73;;;6.95;;
67140;SDS011;54058;52.010;5.546;2023-12-14T09:55:33;12.63;;;6.45;;
67140;SDS011;54058;52.010;5.546;2023-12-14T09:57:59;12.52;;;6.68;;
67140;SDS011;54058;52.010;5.546;2023-12-14T10:00:37;9.65;;;6.15;;
67140;SDS011;54058;52.010;5.546;2023-12-14T10:03:25;9.65;;;5.95;;
67140;SDS011;54058;52.010;5.546;2023-12-14T10:05:56;8.25;;;5.78;;
67140;SDS011;54058;52.010;5.546;2023-12-14T10:08:23;9.10;;;5.75;;
67140;SDS011;54058;52.010;5.546;2023-12-14T10:10:51;8.95;;;5.85;;
67140;SDS011;54058;52.010;5.546;2023-12-14T10:13:37;8.38;;;6.20;;
67140;SDS011;54058;52.010;5.546;2023-12-14T10:16:03;8.38;;;5.72;;
67140;SDS011;54058;52.010;5.546;2023-12-14T10:18:31;7.45;;;5.45;;
67140;SDS011;54058;52.010;5.546;2023-12-14T10:20:59;7.20;;;5.05;;
67140;SDS011;54058;52.010;5.546;2023-12-14T10:23:26;9.30;;;5.75;;
67140;SDS011;54058;52.010;5.546;2023-12-14T10:25:55;8.38;;;5.80;;
67140;SDS011;54058;52.010;5.546;2023-12-14T10:28:22;8.95;;;6.05;;
67140;SDS011;54058;52.010;5.546;2023-12-14T10:30:47;9.52;;;5.60;;
67140;SDS011;54058;52.010;5.546;2023-12-14T10:33:13;8.30;;;5.57;;
67140;SDS011;54058;52.010;5.546;2023-12-14T10:38:07;8.68;;;5.68;;
67140;SDS011;54058;52.010;5.546;2023-12-14T10:40:35;9.85;;;6.20;;
67140;SDS011;54058;52.010;5.546;2023-12-14T10:43:05;7.25;;;5.45;;
67140;SDS011;54058;52.010;5.546;2023-12-14T10:45:32;9.68;;;5.90;;
67140;SDS011;54058;52.010;5.546;2023-12-14T10:47:59;9.60;;;5.55;;
67140;SDS011;54058;52.010;5.546;2023-12-14T10:50:26;9.18;;;5.78;;
67140;SDS011;54058;52.010;5.546;2023-12-14T10:52:54;10.25;;;5.05;;
67140;SDS011;54058;52.010;5.546;2023-12-14T10:55:22;6.28;;;5.20;;
67140;SDS011;54058;52.010;5.546;2023-12-14T10:58:00;8.43;;;5.30;;
67140;SDS011;54058;52.010;5.546;2023-12-14T11:00:28;9.20;;;5.43;;
67140;SDS011;54058;52.010;5.546;2023-12-14T11:02:54;7.10;;;5.10;;
67140;SDS011;54058;52.010;5.546;2023-12-14T11:05:21;8.55;;;5.60;;
67140;SDS011;54058;52.010;5.546;2023-12-14T11:07:54;8.57;;;5.40;;
67140;SDS011;54058;52.010;5.546;2023-12-14T11:10:26;7.97;;;5.50;;
67140;SDS011;54058;52.010;5.546;2023-12-14T11:12:57;9.35;;;5.82;;
67140;SDS011;54058;52.010;5.546;2023-12-14T11:15:27;10.82;;;5.63;;
67140;SDS011;54058;52.010;5.546;2023-12-14T11:23:14;9.20;;;5.90;;
67140;SDS011;54058;52.010;5.546;2023-12-14T11:25:48;11.00;;;5.72;;
67140;SDS011;54058;52.010;5.546;2023-12-14T11:28:15;8.65;;;5.53;;
67140;SDS011;54058;52.010;5.546;2023-12-14T11:30:42;7.78;;;5.32;;
67140;SDS011;54058;52.010;5.546;2023-12-14T11:33:10;9.70;;;5.60;;
67140;SDS011;54058;52.010;5.546;2023-12-14T11:35:36;8.60;;;6.32;;
67140;SDS011;54058;52.010;5.546;2023-12-14T11:38:02;8.65;;;5.35;;
67140;SDS011;54058;52.010;5.546;2023-12-14T11:40:35;9.32;;;5.05;;
67140;SDS011;54058;52.010;5.546;2023-12-14T11:43:01;6.63;;;5.00;;
67140;SDS011;54058;52.010;5.546;2023-12-14T11:45:38;8.35;;;5.05;;
67140;SDS011;54058;52.010;5.546;2023-12-14T11:48:04;7.28;;;5.30;;
67140;SDS011;54058;52.010;5.546;2023-12-14T11:50:35;8.48;;;5.30;;
67140;SDS011;54058;52.010;5.546;2023-12-14T11:53:02;8.57;;;5.32;;
67140;SDS011;54058;52.010;5.546;2023-12-14T11:55:29;9.60;;;5.53;;
67140;SDS011;54058;52.010;5.546;2023-12-14T11:57:55;5.97;;;4.50;;
67140;SDS011;54058;52.010;5.546;2023-12-14T12:00:25;7.60;;;4.83;;
67140;SDS011;54058;52.010;5.546;2023-12-14T12:02:52;6.78;;;4.63;;
67140;SDS011;54058;52.010;5.546;2023-12-14T12:05:35;8.13;;;5.40;;
67140;SDS011;54058;52.010;5.546;2023-12-14T12:08:04;7.93;;;5.18;;
67140;SDS011;54058;52.010;5.546;2023-12-14T12:10:31;9.38;;;5.88;;
67140;SDS011;54058;52.010;5.546;2023-12-14T12:13:00;5.82;;;4.53;;
67140;SDS011;54058;52.010;5.546;2023-12-14T12:15:32;9.13;;;5.13;;
67140;SDS011;54058;52.010;5.546;2023-12-14T12:18:02;8.55;;;5.38;;
67140;SDS011;54058;52.010;5.546;2023-12-14T12:20:31;7.85;;;5.32;;
67140;SDS011;54058;52.010;5.546;2023-12-14T12:22:57;9.13;;;5.53;;
67140;SDS011;54058;52.010;5.546;2023-12-14T12:25:23;6.82;;;5.03;;
67140;SDS011;54058;52.010;5.546;2023-12-14T12:27:49;8.25;;;5.25;;
67140;SDS011;54058;52.010;5.546;2023-12-14T12:30:14;8.18;;;5.40;;
67140;SDS011;54058;52.010;5.546;2023-12-14T12:32:41;8.10;;;4.63;;
67140;SDS011;54058;52.010;5.546;2023-12-14T12:35:07;7.70;;;5.07;;
67140;SDS011;54058;52.010;5.546;2023-12-14T12:37:33;9.35;;;5.32;;
67140;SDS011;54058;52.010;5.546;2023-12-14T12:39:59;8.55;;;5.28;;
67140;SDS011;54058;52.010;5.546;2023-12-14T12:42:24;8.85;;;5.53;;
67140;SDS011;54058;52.010;5.546;2023-12-14T12:44:50;6.88;;;5.13;;
67140;SDS011;54058;52.010;5.546;2023-12-14T12:47:16;6.57;;;4.93;;
67140;SDS011;54058;52.010;5.546;2023-12-14T12:49:42;7.03;;;4.82;;
67140;SDS011;54058;52.010;5.546;2023-12-14T12:52:08;23.33;;;11.35;;
67140;SDS011;54058;52.010;5.546;2023-12-14T12:54:34;9.32;;;6.53;;
67140;SDS011;54058;52.010;5.546;2023-12-14T12:57:00;10.80;;;6.43;;
67140;SDS011;54058;52.010;5.546;2023-12-14T12:59:26;20.30;;;11.20;;
67140;SDS011;54058;52.010;5.546;2023-12-14T13:01:51;9.40;;;6.30;;
67140;SDS011;54058;52.010;5.546;2023-12-14T13:04:21;7.87;;;5.17;;
67140;SDS011;54058;52.010;5.546;2023-12-14T13:06:47;9.32;;;5.88;;
67140;SDS011;54058;52.010;5.546;2023-12-14T13:09:14;8.07;;;5.15;;
67140;SDS011;54058;52.010;5.546;2023-12-14T13:11:41;5.97;;;5.22;;
67140;SDS011;54058;52.010;5.546;2023-12-14T13:14:10;11.40;;;7.43;;
67140;SDS011;54058;52.010;5.546;2023-12-14T13:16:36;13.63;;;8.70;;
67140;SDS011;54058;52.010;5.546;2023-12-14T13:19:02;19.52;;;10.30;;
67140;SDS011;54058;52.010;5.546;2023-12-14T13:21:29;13.50;;;7.55;;
67140;SDS011;54058;52.010;5.546;2023-12-14T13:23:55;10.88;;;6.20;;
67140;SDS011;54058;52.010;5.546;2023-12-14T13:26:22;9.07;;;5.45;;
67140;SDS011;54058;52.010;5.546;2023-12-14T13:28:49;7.95;;;5.68;;
67140;SDS011;54058;52.010;5.546;2023-12-14T13:31:16;15.23;;;7.85;;
67140;SDS011;54058;52.010;5.546;2023-12-14T13:33:41;10.85;;;6.60;;
67140;SDS011;54058;52.010;5.546;2023-12-14T13:36:07;13.10;;;6.70;;
67140;SDS011;54058;52.010;5.546;2023-12-14T13:38:34;8.65;;;5.80;;
67140;SDS011;54058;52.010;5.546;2023-12-14T13:41:01;10.25;;;6.05;;
67140;SDS011;54058;52.010;5.546;2023-12-14T13:43:30;14.40;;;7.13;;
67140;SDS011;54058;52.010;5.546;2023-12-14T13:45:56;9.23;;;6.10;;
67140;SDS011;54058;52.010;5.546;2023-12-14T13:48:25;9.07;;;6.40;;
67140;SDS011;54058;52.010;5.546;2023-12-14T13:50:55;11.77;;;6.60;;
67140;SDS011;54058;52.010;5.546;2023-12-14T13:53:21;10.18;;;6.25;;
67140;SDS011;54058;52.010;5.546;2023-12-14T13:55:47;15.35;;;8.00;;
67140;SDS011;54058;52.010;5.546;2023-12-14T13:58:16;13.65;;;6.60;;
67140;SDS011;54058;52.010;5.546;2023-12-14T14:00:43;8.70;;;6.43;;
67140;SDS011;54058;52.010;5.546;2023-12-14T14:03:09;10.75;;;5.85;;
67140;SDS011;54058;52.010;5.546;2023-12-14T14:05:35;10.05;;;6.38;;
67140;SDS011;54058;52.010;5.546;2023-12-14T14:08:00;14.43;;;7.75;;
67140;SDS011;54058;52.010;5.546;2023-12-14T14:10:26;10.38;;;6.82;;
67140;SDS011;54058;52.010;5.546;2023-12-14T14:12:52;9.35;;;6.05;;
67140;SDS011;54058;52.010;5.546;2023-12-14T14:15:18;7.80;;;5.97;;
67140;SDS011;54058;52.010;5.546;2023-12-14T14:17:45;7.70;;;4.97;;
67140;SDS011;54058;52.010;5.546;2023-12-14T14:20:13;15.23;;;6.35;;
67140;SDS011;54058;52.010;5.546;2023-12-14T14:22:38;9.32;;;5.47;;
67140;SDS011;54058;52.010;5.546;2023-12-14T14:25:04;5.53;;;4.25;;
67140;SDS011;54058;52.010;5.546;2023-12-14T14:27:34;6.63;;;4.50;;
67140;SDS011;54058;52.010;5.546;2023-12-14T14:29:59;6.60;;;4.45;;
67140;SDS011;54058;52.010;5.546;2023-12-14T14:32:25;8.32;;;5.20;;
67140;SDS011;54058;52.010;5.546;2023-12-14T14:34:51;6.35;;;5.35;;
67140;SDS011;54058;52.010;5.546;2023-12-14T14:37:18;12.32;;;6.32;;
67140;SDS011;54058;52.010;5.546;2023-12-14T14:39:44;8.82;;;5.28;;
67140;SDS011;54058;52.010;5.546;2023-12-14T14:42:09;8.27;;;5.30;;
67140;SDS011;54058;52.010;5.546;2023-12-14T14:44:35;7.13;;;5.38;;
67140;SDS011;54058;52.010;5.546;2023-12-14T14:47:01;7.75;;;5.28;;
67140;SDS011;54058;52.010;5.546;2023-12-14T14:49:28;8.07;;;5.00;;